sensor_id;sensor_type;location;lat;lon;timestamp;noise_LAeq;noise_LA_min;noise_LA_max;noise_LA01;noise_LA95
52872;Laerm;40124;52.198;9.902;2023-08-12T00:01:25;41.20;36.45;47.04;;
52872;Laerm;40124;52.198;9.902;2023-08-12T00:03:51;65.94;37.12;83.81;;
52872;Laerm;40124;52.198;9.902;2023-08-12T00:06:16;41.38;36.91;47.00;;
52872;Laerm;40124;52.198;9.902;2023-08-12T00:08:41;57.23;38.21;76.44;;
52872;Laerm;40124;52.198;9.902;2023-08-12T00:11:06;41.25;36.69;47.40;;
52872;Laerm;40124;52.198;9.902;2023-08-12T00:13:31;59.03;36.45;76.21;;
52872;Laerm;40124;52.198;9.902;2023-08-12T00:15:56;63.97;38.37;79.61;;
52872;Laerm;40124;52.198;9.902;2023-08-12T00:18:22;68.15;38.37;85.18;;
52872;Laerm;40124;52.198;9.902;2023-08-12T00:20:47;61.73;37.52;81.00;;
52872;Laerm;40124;52.198;9.902;2023-08-12T00:23:12;57.75;38.05;76.88;;
52872;Laerm;40124;52.198;9.902;2023-08-12T00:25:37;44.79;37.70;55.81;;
52872;Laerm;40124;52.198;9.902;2023-08-12T00:28:03;43.75;38.95;53.88;;
52872;Laerm;40124;52.198;9.902;2023-08-12T00:30:28;41.93;38.05;47.32;;
52872;Laerm;40124;52.198;9.902;2023-08-12T00:32:53;59.30;38.05;76.94;;
52872;Laerm;40124;52.198;9.902;2023-08-12T00:35:18;58.85;38.67;78.36;;
52872;Laerm;40124;52.198;9.902;2023-08-12T00:37:44;63.47;39.21;80.76;;
52872;Laerm;40124;52.198;9.902;2023-08-12T00:40:10;58.82;39.21;79.09;;
52872;Laerm;40124;52.198;9.902;2023-08-12T00:42:35;41.61;37.52;46.94;;
52872;Laerm;40124;52.198;9.902;2023-08-12T00:45:00;57.34;38.05;77.02;;
52872;Laerm;40124;52.198;9.902;2023-08-12T00:47:26;65.28;38.05;83.92;;
52872;Laerm;40124;52.198;9.902;2023-08-12T00:49:52;67.18;38.81;85.95;;
52872;Laerm;40124;52.198;9.902;2023-08-12T00:52:17;53.28;37.32;72.54;;
52872;Laerm;40124;52.198;9.902;2023-08-12T00:54:42;56.99;37.88;76.85;;
52872;Laerm;40124;52.198;9.902;2023-08-12T00:57:08;60.60;37.52;77.17;;
52872;Laerm;40124;52.198;9.902;2023-08-12T00:59:34;52.10;38.21;69.93;;
52872;Laerm;40124;52.198;9.902;2023-08-12T01:02:00;41.81;36.45;47.68;;
52872;Laerm;40124;52.198;9.902;2023-08-12T01:04:26;66.11;39.34;86.90;;
52872;Laerm;40124;52.198;9.902;2023-08-12T01:06:51;44.27;37.52;52.57;;
52872;Laerm;40124;52.198;9.902;2023-08-12T01:09:16;49.80;35.66;67.84;;
52872;Laerm;40124;52.198;9.902;2023-08-12T01:11:47;41.53;35.66;47.16;;
52872;Laerm;40124;52.198;9.902;2023-08-12T01:14:16;64.39;40.98;83.45;;
52872;Laerm;40124;52.198;9.902;2023-08-12T01:16:47;60.52;40.03;79.83;;
52872;Laerm;40124;52.198;9.902;2023-08-12T01:19:18;42.73;38.67;47.48;;
52872;Laerm;40124;52.198;9.902;2023-08-12T01:21:46;44.44;38.81;53.20;;
52872;Laerm;40124;52.198;9.902;2023-08-12T01:24:14;59.11;38.52;80.10;;
52872;Laerm;40124;52.198;9.902;2023-08-12T01:26:39;42.09;38.52;46.76;;
52872;Laerm;40124;52.198;9.902;2023-08-12T01:29:04;57.78;38.52;76.19;;
52872;Laerm;40124;52.198;9.902;2023-08-12T01:31:34;42.19;38.37;46.96;;
52872;Laerm;40124;52.198;9.902;2023-08-12T01:34:16;56.34;36.20;76.39;;
52872;Laerm;40124;52.198;9.902;2023-08-12T01:36:46;56.55;37.52;75.70;;
52872;Laerm;40124;52.198;9.902;2023-08-12T01:39:11;42.22;37.12;47.02;;
52872;Laerm;40124;52.198;9.902;2023-08-12T01:41:37;67.50;39.08;87.75;;
52872;Laerm;40124;52.198;9.902;2023-08-12T01:44:03;42.01;38.52;46.69;;
52872;Laerm;40124;52.198;9.902;2023-08-12T01:46:28;41.54;36.69;46.97;;
52872;Laerm;40124;52.198;9.902;2023-08-12T01:48:53;66.97;38.02;84.46;;
52872;Laerm;40124;52.198;9.902;2023-08-12T01:51:18;76.25;40.03;94.47;;
52872;Laerm;40124;52.198;9.902;2023-08-12T01:53:43;45.02;39.46;53.68;;
52872;Laerm;40124;52.198;9.902;2023-08-12T01:56:09;57.08;37.70;73.70;;
52872;Laerm;40124;52.198;9.902;2023-08-12T01:58:34;61.57;38.05;81.04;;
52872;Laerm;40124;52.198;9.902;2023-08-12T02:00:59;43.73;36.69;50.85;;
52872;Laerm;40124;52.198;9.902;2023-08-12T02:03:24;68.30;39.21;90.37;;
52872;Laerm;40124;52.198;9.902;2023-08-12T02:05:49;55.47;37.52;75.00;;
52872;Laerm;40124;52.198;9.902;2023-08-12T02:08:14;53.00;38.99;72.28;;
52872;Laerm;40124;52.198;9.902;2023-08-12T02:10:40;65.30;37.52;83.24;;
52872;Laerm;40124;52.198;9.902;2023-08-12T02:13:05;62.97;38.37;84.10;;
52872;Laerm;40124;52.198;9.902;2023-08-12T02:15:30;50.29;38.02;69.46;;
52872;Laerm;40124;52.198;9.902;2023-08-12T02:17:56;69.09;38.52;89.98;;
52872;Laerm;40124;52.198;9.902;2023-08-12T02:20:21;42.25;38.05;46.93;;
52872;Laerm;40124;52.198;9.902;2023-08-12T02:22:46;76.13;40.08;94.65;;
52872;Laerm;40124;52.198;9.902;2023-08-12T02:25:12;71.08;41.75;90.62;;
52872;Laerm;40124;52.198;9.902;2023-08-12T02:27:37;53.45;38.37;72.84;;
52872;Laerm;40124;52.198;9.902;2023-08-12T02:30:02;64.04;37.70;80.12;;
52872;Laerm;40124;52.198;9.902;2023-08-12T02:32:28;64.86;40.80;85.10;;
52872;Laerm;40124;52.198;9.902;2023-08-12T02:34:53;59.15;38.18;79.17;;
52872;Laerm;40124;52.198;9.902;2023-08-12T02:37:18;59.58;37.52;77.40;;
52872;Laerm;40124;52.198;9.902;2023-08-12T02:39:43;41.86;37.35;58.72;;
52872;Laerm;40124;52.198;9.902;2023-08-12T02:42:08;41.72;36.69;46.82;;
52872;Laerm;40124;52.198;9.902;2023-08-12T02:44:33;63.50;37.88;82.24;;
52872;Laerm;40124;52.198;9.902;2023-08-12T02:46:59;55.57;38.67;74.85;;
52872;Laerm;40124;52.198;9.902;2023-08-12T02:49:24;61.70;37.52;80.39;;
52872;Laerm;40124;52.198;9.902;2023-08-12T02:51:49;59.46;37.70;75.87;;
52872;Laerm;40124;52.198;9.902;2023-08-12T02:54:14;63.87;37.52;83.96;;
52872;Laerm;40124;52.198;9.902;2023-08-12T02:56:39;67.67;37.32;85.82;;
52872;Laerm;40124;52.198;9.902;2023-08-12T02:59:05;65.28;38.37;85.74;;
52872;Laerm;40124;52.198;9.902;2023-08-12T03:01:30;69.71;39.34;89.64;;
52872;Laerm;40124;52.198;9.902;2023-08-12T03:03:55;63.61;41.75;82.73;;
52872;Laerm;40124;52.198;9.902;2023-08-12T03:06:21;59.17;39.34;80.42;;
52872;Laerm;40124;52.198;9.902;2023-08-12T03:08:46;55.41;41.22;77.08;;
52872;Laerm;40124;52.198;9.902;2023-08-12T03:11:11;77.08;41.75;93.65;;
52872;Laerm;40124;52.198;9.902;2023-08-12T03:13:36;60.23;41.53;76.45;;
52872;Laerm;40124;52.198;9.902;2023-08-12T03:16:01;62.71;39.58;82.13;;
52872;Laerm;40124;52.198;9.902;2023-08-12T03:18:26;57.44;37.32;77.52;;
52872;Laerm;40124;52.198;9.902;2023-08-12T03:20:52;61.86;36.20;78.43;;
52872;Laerm;40124;52.198;9.902;2023-08-12T03:23:17;40.64;35.36;51.85;;
52872;Laerm;40124;52.198;9.902;2023-08-12T03:25:42;45.68;35.66;65.78;;
52872;Laerm;40124;52.198;9.902;2023-08-12T03:28:07;54.53;35.94;73.44;;
52872;Laerm;40124;52.198;9.902;2023-08-12T03:30:32;61.84;37.52;77.74;;
52872;Laerm;40124;52.198;9.902;2023-08-12T03:32:58;63.48;37.52;77.11;;
52872;Laerm;40124;52.198;9.902;2023-08-12T03:35:23;59.47;37.12;76.83;;
52872;Laerm;40124;52.198;9.902;2023-08-12T03:37:48;61.55;37.88;80.15;;
52872;Laerm;40124;52.198;9.902;2023-08-12T03:40:13;56.46;35.36;77.60;;
52872;Laerm;40124;52.198;9.902;2023-08-12T03:42:38;40.99;35.36;49.04;;
52872;Laerm;40124;52.198;9.902;2023-08-12T03:45:04;59.82;35.66;81.53;;
52872;Laerm;40124;52.198;9.902;2023-08-12T03:47:29;62.53;34.31;81.58;;
52872;Laerm;40124;52.198;9.902;2023-08-12T03:49:54;62.30;40.23;80.03;;
52872;Laerm;40124;52.198;9.902;2023-08-12T03:52:19;62.07;36.45;82.70;;
52872;Laerm;40124;52.198;9.902;2023-08-12T03:54:44;60.37;36.45;80.36;;
52872;Laerm;40124;52.198;9.902;2023-08-12T03:57:10;66.49;39.08;84.45;;
52872;Laerm;40124;52.198;9.902;2023-08-12T03:59:35;62.44;38.05;81.84;;
52872;Laerm;40124;52.198;9.902;2023-08-12T04:02:00;60.80;36.45;76.56;;
52872;Laerm;40124;52.198;9.902;2023-08-12T04:04:25;59.26;36.69;78.45;;
52872;Laerm;40124;52.198;9.902;2023-08-12T04:06:50;57.29;36.45;75.10;;
52872;Laerm;40124;52.198;9.902;2023-08-12T04:09:18;63.61;38.81;78.01;;
52872;Laerm;40124;52.198;9.902;2023-08-12T04:11:44;62.01;37.52;79.15;;
52872;Laerm;40124;52.198;9.902;2023-08-12T04:14:09;62.41;37.32;79.69;;
52872;Laerm;40124;52.198;9.902;2023-08-12T04:16:35;61.75;37.52;78.48;;
52872;Laerm;40124;52.198;9.902;2023-08-12T04:19:00;68.04;39.81;81.13;;
52872;Laerm;40124;52.198;9.902;2023-08-12T04:21:25;66.77;40.80;81.80;;
52872;Laerm;40124;52.198;9.902;2023-08-12T04:23:50;57.77;35.04;72.02;;
52872;Laerm;40124;52.198;9.902;2023-08-12T04:26:15;66.07;36.69;85.18;;
52872;Laerm;40124;52.198;9.902;2023-08-12T04:28:40;58.08;36.45;76.66;;
52872;Laerm;40124;52.198;9.902;2023-08-12T04:31:06;63.33;38.21;79.84;;
52872;Laerm;40124;52.198;9.902;2023-08-12T04:33:32;62.75;36.91;80.05;;
52872;Laerm;40124;52.198;9.902;2023-08-12T04:35:57;62.95;37.12;80.41;;
52872;Laerm;40124;52.198;9.902;2023-08-12T04:38:23;61.77;37.12;78.26;;
52872;Laerm;40124;52.198;9.902;2023-08-12T04:40:48;64.04;39.34;79.04;;
52872;Laerm;40124;52.198;9.902;2023-08-12T04:43:13;65.23;39.78;83.12;;
52872;Laerm;40124;52.198;9.902;2023-08-12T04:45:38;63.80;42.82;78.93;;
52872;Laerm;40124;52.198;9.902;2023-08-12T04:48:04;66.42;40.13;85.85;;
52872;Laerm;40124;52.198;9.902;2023-08-12T04:50:32;67.48;44.69;82.88;;
52872;Laerm;40124;52.198;9.902;2023-08-12T04:52:59;66.51;44.58;82.73;;
52872;Laerm;40124;52.198;9.902;2023-08-12T04:55:25;57.52;44.73;76.72;;
52872;Laerm;40124;52.198;9.902;2023-08-12T04:57:50;63.04;44.35;77.80;;
52872;Laerm;40124;52.198;9.902;2023-08-12T05:00:15;65.85;43.39;79.67;;
52872;Laerm;40124;52.198;9.902;2023-08-12T05:02:42;59.68;43.39;75.49;;
52872;Laerm;40124;52.198;9.902;2023-08-12T05:05:07;70.29;43.86;88.44;;
52872;Laerm;40124;52.198;9.902;2023-08-12T05:07:32;68.98;42.71;84.48;;
52872;Laerm;40124;52.198;9.902;2023-08-12T05:09:58;61.45;40.13;79.90;;
52872;Laerm;40124;52.198;9.902;2023-08-12T05:12:24;59.61;42.22;75.68;;
52872;Laerm;40124;52.198;9.902;2023-08-12T05:14:49;68.57;42.16;83.30;;
52872;Laerm;40124;52.198;9.902;2023-08-12T05:17:14;67.14;41.30;81.47;;
52872;Laerm;40124;52.198;9.902;2023-08-12T05:19:39;65.66;41.68;80.33;;
52872;Laerm;40124;52.198;9.902;2023-08-12T05:22:04;68.58;44.23;81.79;;
52872;Laerm;40124;52.198;9.902;2023-08-12T05:24:29;68.96;42.09;82.79;;
52872;Laerm;40124;52.198;9.902;2023-08-12T05:26:55;66.52;38.52;83.53;;
52872;Laerm;40124;52.198;9.902;2023-08-12T05:29:20;63.01;37.88;83.05;;
52872;Laerm;40124;52.198;9.902;2023-08-12T05:31:45;66.82;37.12;78.97;;
52872;Laerm;40124;52.198;9.902;2023-08-12T05:34:10;66.43;40.98;81.12;;
52872;Laerm;40124;52.198;9.902;2023-08-12T05:36:35;65.68;39.92;81.67;;
52872;Laerm;40124;52.198;9.902;2023-08-12T05:39:01;66.67;38.81;80.77;;
52872;Laerm;40124;52.198;9.902;2023-08-12T05:41:26;66.87;43.63;80.17;;
52872;Laerm;40124;52.198;9.902;2023-08-12T05:43:51;68.80;41.46;79.93;;
52872;Laerm;40124;52.198;9.902;2023-08-12T05:46:16;68.30;40.80;80.81;;
52872;Laerm;40124;52.198;9.902;2023-08-12T05:48:41;68.13;41.61;80.03;;
52872;Laerm;40124;52.198;9.902;2023-08-12T05:51:07;69.25;43.37;85.10;;
52872;Laerm;40124;52.198;9.902;2023-08-12T05:53:32;67.81;45.72;81.39;;
52872;Laerm;40124;52.198;9.902;2023-08-12T05:55:58;67.88;38.95;89.30;;
52872;Laerm;40124;52.198;9.902;2023-08-12T05:58:23;66.25;38.21;82.40;;
52872;Laerm;40124;52.198;9.902;2023-08-12T06:00:48;67.18;37.70;79.46;;
52872;Laerm;40124;52.198;9.902;2023-08-12T06:03:14;67.14;42.98;82.08;;
52872;Laerm;40124;52.198;9.902;2023-08-12T06:05:40;67.72;38.95;82.72;;
52872;Laerm;40124;52.198;9.902;2023-08-12T06:08:05;66.65;39.58;83.44;;
52872;Laerm;40124;52.198;9.902;2023-08-12T06:10:30;65.99;40.03;79.36;;
52872;Laerm;40124;52.198;9.902;2023-08-12T06:12:55;65.11;41.82;78.12;;
52872;Laerm;40124;52.198;9.902;2023-08-12T06:15:23;66.90;39.21;80.07;;
52872;Laerm;40124;52.198;9.902;2023-08-12T06:17:49;65.75;40.18;80.87;;
52872;Laerm;40124;52.198;9.902;2023-08-12T06:20:14;66.84;39.58;81.26;;
52872;Laerm;40124;52.198;9.902;2023-08-12T06:22:39;66.05;38.81;81.17;;
52872;Laerm;40124;52.198;9.902;2023-08-12T06:25:04;66.56;43.68;79.60;;
52872;Laerm;40124;52.198;9.902;2023-08-12T06:27:29;65.31;39.21;80.25;;
52872;Laerm;40124;52.198;9.902;2023-08-12T06:29:56;67.69;43.81;81.31;;
52872;Laerm;40124;52.198;9.902;2023-08-12T06:32:21;66.55;39.70;82.15;;
52872;Laerm;40124;52.198;9.902;2023-08-12T06:34:46;68.24;42.22;80.10;;
52872;Laerm;40124;52.198;9.902;2023-08-12T06:37:11;66.91;40.03;80.20;;
52872;Laerm;40124;52.198;9.902;2023-08-12T06:39:36;68.86;43.77;80.49;;
52872;Laerm;40124;52.198;9.902;2023-08-12T06:42:01;68.67;48.26;80.34;;
52872;Laerm;40124;52.198;9.902;2023-08-12T06:44:28;65.23;40.13;80.30;;
52872;Laerm;40124;52.198;9.902;2023-08-12T06:46:53;69.07;44.11;82.79;;
52872;Laerm;40124;52.198;9.902;2023-08-12T06:49:18;68.35;44.54;79.75;;
52872;Laerm;40124;52.198;9.902;2023-08-12T06:51:43;68.96;40.98;83.18;;
52872;Laerm;40124;52.198;9.902;2023-08-12T06:54:08;70.75;44.54;89.22;;
52872;Laerm;40124;52.198;9.902;2023-08-12T06:56:34;67.91;43.24;81.99;;
52872;Laerm;40124;52.198;9.902;2023-08-12T06:58:59;68.83;40.43;83.35;;
52872;Laerm;40124;52.198;9.902;2023-08-12T07:01:24;67.56;42.09;81.08;;
52872;Laerm;40124;52.198;9.902;2023-08-12T07:03:49;66.74;43.58;80.05;;
52872;Laerm;40124;52.198;9.902;2023-08-12T07:06:14;64.03;35.36;77.14;;
52872;Laerm;40124;52.198;9.902;2023-08-12T07:08:39;69.94;42.09;87.64;;
52872;Laerm;40124;52.198;9.902;2023-08-12T07:11:05;68.36;46.35;80.37;;
52872;Laerm;40124;52.198;9.902;2023-08-12T07:13:30;70.00;43.44;82.01;;
52872;Laerm;40124;52.198;9.902;2023-08-12T07:15:55;68.09;45.48;78.31;;
52872;Laerm;40124;52.198;9.902;2023-08-12T07:18:20;67.69;43.94;79.56;;
52872;Laerm;40124;52.198;9.902;2023-08-12T07:20:45;67.74;41.96;78.30;;
52872;Laerm;40124;52.198;9.902;2023-08-12T07:23:11;69.47;42.88;80.31;;
52872;Laerm;40124;52.198;9.902;2023-08-12T07:25:36;70.09;45.72;81.57;;
52872;Laerm;40124;52.198;9.902;2023-08-12T07:28:01;68.03;43.39;80.73;;
52872;Laerm;40124;52.198;9.902;2023-08-12T07:30:26;72.34;48.60;89.92;;
52872;Laerm;40124;52.198;9.902;2023-08-12T07:32:51;70.20;54.15;78.95;;
52872;Laerm;40124;52.198;9.902;2023-08-12T07:35:16;69.57;46.13;79.45;;
52872;Laerm;40124;52.198;9.902;2023-08-12T07:37:42;70.56;51.31;83.09;;
52872;Laerm;40124;52.198;9.902;2023-08-12T07:40:07;68.77;43.63;80.94;;
52872;Laerm;40124;52.198;9.902;2023-08-12T07:42:33;68.93;50.00;78.52;;
52872;Laerm;40124;52.198;9.902;2023-08-12T07:44:59;68.77;49.65;79.94;;
52872;Laerm;40124;52.198;9.902;2023-08-12T07:47:24;69.20;45.30;80.81;;
52872;Laerm;40124;52.198;9.902;2023-08-12T07:49:49;70.52;45.57;87.02;;
52872;Laerm;40124;52.198;9.902;2023-08-12T07:52:14;72.30;49.23;87.23;;
52872;Laerm;40124;52.198;9.902;2023-08-12T07:54:39;71.07;44.23;87.48;;
52872;Laerm;40124;52.198;9.902;2023-08-12T07:57:05;68.30;43.77;83.54;;
52872;Laerm;40124;52.198;9.902;2023-08-12T07:59:30;68.46;44.97;79.83;;
52872;Laerm;40124;52.198;9.902;2023-08-12T08:01:55;66.69;42.47;79.20;;
52872;Laerm;40124;52.198;9.902;2023-08-12T08:04:20;71.55;45.75;89.04;;
52872;Laerm;40124;52.198;9.902;2023-08-12T08:06:45;70.87;45.14;81.46;;
52872;Laerm;40124;52.198;9.902;2023-08-12T08:09:10;68.72;44.51;78.92;;
52872;Laerm;40124;52.198;9.902;2023-08-12T08:11:35;69.22;42.53;79.87;;
52872;Laerm;40124;52.198;9.902;2023-08-12T08:14:01;68.18;43.24;79.43;;
52872;Laerm;40124;52.198;9.902;2023-08-12T08:16:26;66.43;42.09;80.03;;
52872;Laerm;40124;52.198;9.902;2023-08-12T08:18:51;69.66;45.66;82.60;;
52872;Laerm;40124;52.198;9.902;2023-08-12T08:21:16;71.31;44.76;86.23;;
52872;Laerm;40124;52.198;9.902;2023-08-12T08:23:42;68.17;40.53;80.43;;
52872;Laerm;40124;52.198;9.902;2023-08-12T08:26:07;70.95;43.44;85.85;;
52872;Laerm;40124;52.198;9.902;2023-08-12T08:28:32;66.38;38.32;79.74;;
52872;Laerm;40124;52.198;9.902;2023-08-12T08:30:58;68.53;47.14;80.32;;
52872;Laerm;40124;52.198;9.902;2023-08-12T08:33:23;67.76;45.94;79.93;;
52872;Laerm;40124;52.198;9.902;2023-08-12T08:35:48;74.00;48.23;88.18;;
52872;Laerm;40124;52.198;9.902;2023-08-12T08:38:13;68.60;45.57;80.81;;
52872;Laerm;40124;52.198;9.902;2023-08-12T08:40:38;72.28;52.17;88.44;;
52872;Laerm;40124;52.198;9.902;2023-08-12T08:43:04;67.25;43.39;78.55;;
52872;Laerm;40124;52.198;9.902;2023-08-12T08:45:32;72.76;45.04;87.96;;
52872;Laerm;40124;52.198;9.902;2023-08-12T08:47:59;68.53;43.24;78.81;;
52872;Laerm;40124;52.198;9.902;2023-08-12T08:50:25;67.66;45.51;80.46;;
52872;Laerm;40124;52.198;9.902;2023-08-12T08:52:51;70.91;51.56;86.84;;
52872;Laerm;40124;52.198;9.902;2023-08-12T08:55:16;69.26;45.30;86.92;;
52872;Laerm;40124;52.198;9.902;2023-08-12T08:57:42;70.35;45.80;84.92;;
52872;Laerm;40124;52.198;9.902;2023-08-12T09:00:08;71.09;45.11;86.91;;
52872;Laerm;40124;52.198;9.902;2023-08-12T09:02:34;68.92;44.87;79.47;;
52872;Laerm;40124;52.198;9.902;2023-08-12T09:04:59;69.99;46.76;81.35;;
52872;Laerm;40124;52.198;9.902;2023-08-12T09:07:26;69.13;43.49;81.73;;
52872;Laerm;40124;52.198;9.902;2023-08-12T09:09:52;67.87;45.63;81.35;;
52872;Laerm;40124;52.198;9.902;2023-08-12T09:12:19;67.93;43.77;82.84;;
52872;Laerm;40124;52.198;9.902;2023-08-12T09:14:44;68.36;44.87;80.29;;
52872;Laerm;40124;52.198;9.902;2023-08-12T09:17:10;71.77;44.07;87.23;;
52872;Laerm;40124;52.198;9.902;2023-08-12T09:19:35;71.16;47.57;85.99;;
52872;Laerm;40124;52.198;9.902;2023-08-12T09:22:02;73.46;43.60;89.19;;
52872;Laerm;40124;52.198;9.902;2023-08-12T09:24:28;70.02;48.34;87.09;;
52872;Laerm;40124;52.198;9.902;2023-08-12T09:26:54;71.64;43.86;89.09;;
52872;Laerm;40124;52.198;9.902;2023-08-12T09:29:23;68.00;45.27;79.67;;
52872;Laerm;40124;52.198;9.902;2023-08-12T09:31:49;68.36;42.88;78.23;;
52872;Laerm;40124;52.198;9.902;2023-08-12T09:34:15;70.94;43.44;89.77;;
52872;Laerm;40124;52.198;9.902;2023-08-12T09:36:40;71.25;44.35;86.47;;
52872;Laerm;40124;52.198;9.902;2023-08-12T09:39:05;73.28;48.90;88.13;;
52872;Laerm;40124;52.198;9.902;2023-08-12T09:41:31;69.42;44.27;79.61;;
52872;Laerm;40124;52.198;9.902;2023-08-12T09:43:56;66.38;41.89;77.43;;
52872;Laerm;40124;52.198;9.902;2023-08-12T09:46:24;68.48;45.07;79.86;;
52872;Laerm;40124;52.198;9.902;2023-08-12T09:48:50;66.04;42.53;78.08;;
52872;Laerm;40124;52.198;9.902;2023-08-12T09:51:16;69.62;45.33;81.57;;
52872;Laerm;40124;52.198;9.902;2023-08-12T09:53:41;67.98;42.00;80.06;;
52872;Laerm;40124;52.198;9.902;2023-08-12T09:56:07;70.13;43.44;85.34;;
52872;Laerm;40124;52.198;9.902;2023-08-12T09:58:33;67.48;44.15;78.73;;
52872;Laerm;40124;52.198;9.902;2023-08-12T10:00:58;69.52;47.90;80.17;;
52872;Laerm;40124;52.198;9.902;2023-08-12T10:03:24;68.80;44.87;79.25;;
52872;Laerm;40124;52.198;9.902;2023-08-12T10:05:49;69.45;44.47;79.51;;
52872;Laerm;40124;52.198;9.902;2023-08-12T10:08:15;70.94;47.30;85.98;;
52872;Laerm;40124;52.198;9.902;2023-08-12T10:10:41;69.97;49.89;79.62;;
52872;Laerm;40124;52.198;9.902;2023-08-12T10:13:07;68.95;39.92;80.28;;
52872;Laerm;40124;52.198;9.902;2023-08-12T10:15:34;68.41;40.54;80.26;;
52872;Laerm;40124;52.198;9.902;2023-08-12T10:17:59;65.87;43.19;79.34;;
52872;Laerm;40124;52.198;9.902;2023-08-12T10:20:25;70.34;45.07;84.67;;
52872;Laerm;40124;52.198;9.902;2023-08-12T10:22:50;69.26;46.95;79.65;;
52872;Laerm;40124;52.198;9.902;2023-08-12T10:25:15;67.10;45.63;78.42;;
52872;Laerm;40124;52.198;9.902;2023-08-12T10:27:42;68.86;44.39;82.19;;
52872;Laerm;40124;52.198;9.902;2023-08-12T10:30:08;66.97;43.14;78.01;;
52872;Laerm;40124;52.198;9.902;2023-08-12T10:32:34;68.65;43.81;81.16;;
52872;Laerm;40124;52.198;9.902;2023-08-12T10:34:59;71.17;51.89;81.60;;
52872;Laerm;40124;52.198;9.902;2023-08-12T10:37:25;67.05;43.86;80.15;;
52872;Laerm;40124;52.198;9.902;2023-08-12T10:39:53;71.35;49.71;82.02;;
52872;Laerm;40124;52.198;9.902;2023-08-12T10:45:05;73.36;48.42;90.69;;
52872;Laerm;40124;52.198;9.902;2023-08-12T10:47:31;67.77;46.33;78.97;;
52872;Laerm;40124;52.198;9.902;2023-08-12T10:49:57;70.94;45.83;85.62;;
52872;Laerm;40124;52.198;9.902;2023-08-12T10:52:26;73.48;46.45;91.81;;
52872;Laerm;40124;52.198;9.902;2023-08-12T10:54:52;68.24;45.04;79.63;;
52872;Laerm;40124;52.198;9.902;2023-08-12T10:57:17;69.65;48.36;81.36;;
52872;Laerm;40124;52.198;9.902;2023-08-12T11:04:49;67.41;40.43;79.02;;
52872;Laerm;40124;52.198;9.902;2023-08-12T11:07:18;68.57;45.66;78.71;;
52872;Laerm;40124;52.198;9.902;2023-08-12T11:09:44;68.87;43.72;81.22;;
52872;Laerm;40124;52.198;9.902;2023-08-12T11:12:10;66.59;44.43;78.11;;
52872;Laerm;40124;52.198;9.902;2023-08-12T11:14:46;69.83;44.69;84.58;;
52872;Laerm;40124;52.198;9.902;2023-08-12T11:17:15;67.22;43.54;78.44;;
52872;Laerm;40124;52.198;9.902;2023-08-12T11:19:41;69.35;43.49;82.69;;
52872;Laerm;40124;52.198;9.902;2023-08-12T11:22:07;68.30;45.04;78.66;;
52872;Laerm;40124;52.198;9.902;2023-08-12T11:24:32;71.28;48.00;87.17;;
52872;Laerm;40124;52.198;9.902;2023-08-12T11:26:59;70.11;46.07;85.45;;
52872;Laerm;40124;52.198;9.902;2023-08-12T11:29:25;70.44;44.62;87.15;;
52872;Laerm;40124;52.198;9.902;2023-08-12T11:31:50;70.13;43.68;85.62;;
52872;Laerm;40124;52.198;9.902;2023-08-12T11:34:16;67.04;42.76;76.73;;
52872;Laerm;40124;52.198;9.902;2023-08-12T11:36:41;69.24;48.58;79.91;;
52872;Laerm;40124;52.198;9.902;2023-08-12T11:39:07;69.60;45.94;80.58;;
52872;Laerm;40124;52.198;9.902;2023-08-12T11:41:33;68.71;46.20;84.11;;
52872;Laerm;40124;52.198;9.902;2023-08-12T11:43:58;71.26;50.71;84.33;;
52872;Laerm;40124;52.198;9.902;2023-08-12T11:46:24;69.05;48.98;78.88;;
52872;Laerm;40124;52.198;9.902;2023-08-12T11:48:49;68.95;46.76;83.66;;
52872;Laerm;40124;52.198;9.902;2023-08-12T11:51:15;68.49;46.38;78.87;;
52872;Laerm;40124;52.198;9.902;2023-08-12T11:53:40;69.61;45.86;89.30;;
52872;Laerm;40124;52.198;9.902;2023-08-12T11:56:05;67.73;44.69;78.87;;
52872;Laerm;40124;52.198;9.902;2023-08-12T11:58:36;68.43;47.30;81.81;;
52872;Laerm;40124;52.198;9.902;2023-08-12T12:01:02;69.10;45.75;81.16;;
52872;Laerm;40124;52.198;9.902;2023-08-12T12:03:27;65.78;41.96;79.20;;
52872;Laerm;40124;52.198;9.902;2023-08-12T12:05:54;68.68;48.49;79.11;;
52872;Laerm;40124;52.198;9.902;2023-08-12T12:08:20;68.78;45.01;80.21;;
52872;Laerm;40124;52.198;9.902;2023-08-12T12:10:45;71.69;45.89;87.66;;
52872;Laerm;40124;52.198;9.902;2023-08-12T12:13:10;67.60;44.69;78.43;;
52872;Laerm;40124;52.198;9.902;2023-08-12T12:15:42;67.11;43.58;80.74;;
52872;Laerm;40124;52.198;9.902;2023-08-12T12:18:11;68.93;41.61;83.25;;
52872;Laerm;40124;52.198;9.902;2023-08-12T12:20:41;68.00;43.24;80.79;;
52872;Laerm;40124;52.198;9.902;2023-08-12T12:23:06;66.28;40.80;81.33;;
52872;Laerm;40124;52.198;9.902;2023-08-12T12:25:32;69.02;41.38;84.06;;
52872;Laerm;40124;52.198;9.902;2023-08-12T12:27:57;66.02;43.09;80.00;;
52872;Laerm;40124;52.198;9.902;2023-08-12T12:30:22;67.92;42.59;89.56;;
52872;Laerm;40124;52.198;9.902;2023-08-12T12:32:48;66.65;44.43;75.93;;
52872;Laerm;40124;52.198;9.902;2023-08-12T12:35:13;66.33;44.54;78.45;;
52872;Laerm;40124;52.198;9.902;2023-08-12T12:37:39;62.77;43.04;75.98;;
52872;Laerm;40124;52.198;9.902;2023-08-12T12:40:04;66.92;44.73;77.73;;
52872;Laerm;40124;52.198;9.902;2023-08-12T12:42:32;63.61;42.71;78.50;;
52872;Laerm;40124;52.198;9.902;2023-08-12T12:44:57;63.21;43.49;77.24;;
52872;Laerm;40124;52.198;9.902;2023-08-12T12:47:22;67.31;45.39;81.94;;
52872;Laerm;40124;52.198;9.902;2023-08-12T12:49:48;64.03;41.82;77.09;;
52872;Laerm;40124;52.198;9.902;2023-08-12T12:52:13;68.79;45.94;80.81;;
52872;Laerm;40124;52.198;9.902;2023-08-12T12:54:38;68.55;44.51;81.53;;
52872;Laerm;40124;52.198;9.902;2023-08-12T12:57:03;68.92;45.80;80.89;;
52872;Laerm;40124;52.198;9.902;2023-08-12T12:59:31;69.95;43.09;86.67;;
52872;Laerm;40124;52.198;9.902;2023-08-12T13:01:56;65.87;43.14;82.33;;
52872;Laerm;40124;52.198;9.902;2023-08-12T13:04:21;71.35;60.13;82.85;;
52872;Laerm;40124;52.198;9.902;2023-08-12T13:06:47;67.99;56.98;80.29;;
52872;Laerm;40124;52.198;9.902;2023-08-12T13:09:12;76.28;64.44;92.60;;
52872;Laerm;40124;52.198;9.902;2023-08-12T13:11:37;86.77;69.69;101.18;;
52872;Laerm;40124;52.198;9.902;2023-08-12T13:14:03;83.41;66.20;101.25;;
52872;Laerm;40124;52.198;9.902;2023-08-12T13:16:28;83.11;69.99;97.74;;
52872;Laerm;40124;52.198;9.902;2023-08-12T13:18:53;76.54;65.81;92.26;;
52872;Laerm;40124;52.198;9.902;2023-08-12T13:21:18;65.92;54.28;80.97;;
52872;Laerm;40124;52.198;9.902;2023-08-12T13:23:44;64.96;47.61;77.43;;
52872;Laerm;40124;52.198;9.902;2023-08-12T13:26:09;69.00;52.53;78.44;;
52872;Laerm;40124;52.198;9.902;2023-08-12T13:28:34;67.46;43.81;79.32;;
52872;Laerm;40124;52.198;9.902;2023-08-12T13:30:59;69.15;45.94;80.85;;
52872;Laerm;40124;52.198;9.902;2023-08-12T13:33:24;68.31;44.35;78.92;;
52872;Laerm;40124;52.198;9.902;2023-08-12T13:35:49;69.67;46.30;83.46;;
52872;Laerm;40124;52.198;9.902;2023-08-12T13:38:15;68.63;47.08;79.11;;
52872;Laerm;40124;52.198;9.902;2023-08-12T13:40:40;72.81;48.69;93.71;;
52872;Laerm;40124;52.198;9.902;2023-08-12T13:43:05;68.36;43.72;79.47;;